Accueil
METAR-TAF:

METAR-TAF

Aéroports :

Aéroport international de Gibraltar

Gibraltar, Gibraltar

latitude: 36-09N, longitude: 005-21W, altitude: 5 m

Observation

Le bulletin a été fait il y a 22 minutes, à 17:50 UTC
Vent 6 kt de est
Température 21°C
Humidité 83%
Pression 1020 hPa
Visibilité: 8000 m
Quelques nuages à une hauteur de 800 ft
Ciel couvert à une hauteur de 25000 ft
brume sèche

METAR: LXGB 221750Z 10006KT 8000 HZ FEW008 OVC250 21/18 Q1020 BLU TEMPO 7000 HZ SCT008 GRN

Heure: 20:12 (18:12 UTC)

Prévision

Le bulletin a été fait il y a 1 heure et 43 minutes, à 16:29 UTC
Prévision valable du 22 à 18 UTC au 22 à 22 UTC
Vent 8 kt de est
Visibilité: 8000 m
Quelques nuages à une hauteur de 1500 ft
brume sèche
Evoluant progressivement
du 22 à 18 UTC au 22 à 21 UTC
Visibilité: 6000 m
Nuages épars à une hauteur de 800 ft

TAF: LXGB 221629Z 2218/2222 10008KT 8000 HZ FEW015 BECMG 2218/2221 6000 SCT008

Observations et prévisions météorologiques de plus de 4000 aéroports (messages METAR et TAF).

Les stations disponibles sont représentées par des disques jaunes et rouges sur la carte.

Passer la souris dessus pour voir le nom de la station.

Cliquer dessus pour voir les observations et prévisions météorologiques.

Pour changer de carte: cliquez sur les boutons verts avec une croix noire pour zoomer, sur le bouton vert avec un tiret pour effectuer un zoom arrière, ou sur les flèches vertes pour les cartes adjacentes.


METAR-TAF: